Time;durP1;ratioP1;P1;durP2;ratioP2;P2;SDS_P1;SDS_P2;PMS_P1;PMS_P2;Temp;Humidity;BMP_temperature;BMP_pressure;BME280_temperature;BME280_humidity;BME280_pressure;Samples;Min_cycle;Max_cycle;Signal;HPM_P1;HPM_P2
2021/03/24 00:02:01;;;;;;;12.20;4.83;;;;;;;-1.75;66.83;100119.86;1740021;82;21025;-71
2021/03/24 00:04:32;;;;;;;9.60;6.00;;;;;;;-1.76;66.91;100124.97;1739975;82;21037;-70
2021/03/24 00:07:00;;;;;;;7.70;5.30;;;;;;;-1.78;66.96;100125.41;1740032;82;21126;-70
2021/03/24 00:09:28;;;;;;;5.05;3.85;;;;;;;-1.79;66.89;100122.44;1740240;82;21374;-70
2021/03/24 00:11:58;;;;;;;3.22;3.02;;;;;;;-1.80;67.01;100124.56;1740142;81;21349;-70
2021/03/24 00:14:27;;;;;;;3.20;3.00;;;;;;;-1.80;67.03;100127.97;1740057;82;20999;-70
2021/03/24 00:16:55;;;;;;;3.17;2.92;;;;;;;-1.81;67.10;100117.77;1753664;81;20946;-70
2021/03/24 00:19:24;;;;;;;3.20;2.87;;;;;;;-1.81;67.09;100129.25;1759004;81;21486;-70
2021/03/24 00:21:57;;;;;;;2.70;2.60;;;;;;;-1.83;67.16;100128.41;1755146;81;20937;-70
2021/03/24 00:24:24;;;;;;;3.33;3.12;;;;;;;-1.85;67.35;100127.56;1758922;81;21141;-70
2021/03/24 00:26:53;;;;;;;3.17;2.90;;;;;;;-1.89;67.45;100126.72;1758881;81;21602;-70
2021/03/24 00:29:21;;;;;;;4.17;3.65;;;;;;;-1.90;67.58;100133.95;1758975;81;21574;-69
2021/03/24 00:31:49;;;;;;;3.35;2.92;;;;;;;-1.89;67.62;100145.02;1758897;81;21052;-70
2021/03/24 00:34:18;;;;;;;3.05;2.85;;;;;;;-1.89;67.66;100147.14;1758981;81;20969;-69
2021/03/24 00:36:49;;;;;;;3.55;3.25;;;;;;;-1.90;67.71;100147.99;1759025;81;22067;-70
2021/03/24 00:39:17;;;;;;;3.17;2.98;;;;;;;-1.88;67.86;100153.09;1758926;81;20965;-70
2021/03/24 00:41:46;;;;;;;3.12;2.92;;;;;;;-1.85;67.91;100149.25;1758982;81;21507;-70
2021/03/24 00:44:16;;;;;;;3.52;3.22;;;;;;;-1.85;67.82;100156.91;1758880;81;20969;-70
2021/03/24 00:46:44;;;;;;;3.00;2.80;;;;;;;-1.83;67.84;100159.03;1759033;81;20973;-70
2021/03/24 00:49:13;;;;;;;3.40;3.10;;;;;;;-1.83;67.92;100156.05;1758968;81;21205;-70
2021/03/24 00:51:42;;;;;;;4.10;2.90;;;;;;;-1.83;67.63;100161.58;1758930;81;21009;-70
2021/03/24 00:54:10;;;;;;;3.30;3.00;;;;;;;-1.84;67.57;100162.02;1758980;81;21005;-70
2021/03/24 00:56:40;;;;;;;3.55;3.25;;;;;;;-1.83;67.50;100174.34;1758900;81;21020;-70
2021/03/24 00:59:09;;;;;;;3.20;2.90;;;;;;;-1.85;67.53;100173.08;1758962;81;21022;-71
2021/03/24 01:01:37;;;;;;;4.75;3.30;;;;;;;-1.88;67.45;100175.63;1758964;81;22232;-70
2021/03/24 01:04:07;;;;;;;5.05;3.35;;;;;;;-1.88;67.52;100167.13;1758911;81;21033;-70
2021/03/24 01:06:39;;;;;;;3.37;3.15;;;;;;;-1.87;67.47;100175.20;1758970;81;20997;-69
2021/03/24 01:09:09;;;;;;;4.65;3.40;;;;;;;-1.88;67.50;100182.44;1758937;81;20993;-69
2021/03/24 01:11:38;;;;;;;3.47;3.20;;;;;;;-1.90;67.44;100185.00;1759017;81;20957;-70
2021/03/24 01:14:08;;;;;;;4.20;3.45;;;;;;;-1.90;67.32;100186.27;1758946;81;21250;-70
2021/03/24 01:16:57;;;;;;;3.60;3.30;;;;;;;-1.91;67.39;100190.95;1750634;81;21077;-70
2021/03/24 01:19:28;;;;;;;3.77;3.08;;;;;;;-1.91;67.44;100190.95;1740090;81;20925;-68
2021/03/24 01:21:58;;;;;;;3.30;3.10;;;;;;;-1.92;67.42;100192.23;1740010;82;20891;-69
2021/03/24 01:24:26;;;;;;;3.90;3.60;;;;;;;-1.93;67.32;100196.48;1740089;82;20930;-69
2021/03/24 01:26:55;;;;;;;3.60;3.27;;;;;;;-1.93;67.37;100196.48;1740051;82;22335;-69
2021/03/24 01:29:24;;;;;;;3.05;2.85;;;;;;;-1.94;67.48;100201.59;1740025;81;21073;-69
2021/03/24 01:31:52;;;;;;;3.52;3.22;;;;;;;-1.95;67.48;100201.17;1740008;82;21002;-69
2021/03/24 01:34:20;;;;;;;4.62;2.65;;;;;;;-1.97;67.57;100204.16;1740127;82;20966;-69
2021/03/24 01:36:49;;;;;;;3.80;3.50;;;;;;;-1.99;67.77;100208.41;1740073;82;21045;-72
2021/03/24 01:39:17;;;;;;;3.75;3.37;;;;;;;-1.99;67.93;100213.52;1740051;82;21040;-70
2021/03/24 01:41:47;;;;;;;3.10;2.90;;;;;;;-1.98;68.00;100214.78;1739956;82;21539;-70
2021/03/24 01:44:16;;;;;;;5.17;2.85;;;;;;;-1.96;68.02;100214.78;1740032;81;20938;-70
2021/03/24 01:46:46;;;;;;;4.45;3.35;;;;;;;-1.95;68.03;100221.16;1739979;81;20942;-70
2021/03/24 01:49:24;;;;;;;3.20;3.00;;;;;;;-1.94;67.94;100225.84;1740103;81;20938;-70
2021/03/24 01:52:05;;;;;;;4.08;3.10;;;;;;;-1.94;67.86;100225.41;1740099;82;22519;-70
2021/03/24 01:54:37;;;;;;;3.70;3.40;;;;;;;-1.95;67.86;100226.27;1740001;82;21029;-70
2021/03/24 01:57:24;;;;;;;3.27;3.08;;;;;;;-1.93;67.66;100228.81;1740026;82;20982;-69
2021/03/24 01:59:54;;;;;;;3.40;3.10;;;;;;;-1.92;67.64;100231.36;1736459;82;21029;-69
2021/03/24 02:02:36;;;;;;;3.30;3.10;;;;;;;-1.91;67.60;100236.04;1740052;82;21010;-69
2021/03/24 02:05:07;;;;;;;3.27;2.98;;;;;;;-1.92;67.64;100231.78;1739948;81;22309;-68
2021/03/24 02:07:44;;;;;;;2.98;2.75;;;;;;;-1.94;67.66;100233.06;1720014;82;20966;-69
2021/03/24 02:10:17;;;;;;;4.95;2.67;;;;;;;-1.93;67.77;100242.42;1726411;82;20947;-69
2021/03/24 02:12:57;;;;;;;3.95;3.58;;;;;;;-1.90;67.69;100239.86;1739960;82;20930;-71
2021/03/24 02:15:31;;;;;;;3.90;3.30;;;;;;;-1.89;67.68;100241.98;1740048;82;20922;-70
2021/03/24 02:18:00;;;;;;;5.72;3.15;;;;;;;-1.91;67.59;100239.44;1756118;81;21973;-72
2021/03/24 02:20:43;;;;;;;4.17;3.65;;;;;;;-1.92;67.64;100239.44;1758832;81;20942;-72
2021/03/24 02:23:42;;;;;;;3.20;2.90;;;;;;;-1.92;67.67;100239.44;1758891;81;21213;-71
2021/03/24 02:26:49;;;;;;;3.30;2.95;;;;;;;-1.93;67.68;100234.77;1758979;81;21044;-70
2021/03/24 02:29:20;;;;;;;3.37;3.08;;;;;;;-1.93;67.75;100236.47;1731750;81;20969;-69
2021/03/24 02:31:50;;;;;;;3.10;2.90;;;;;;;-1.94;67.87;100239.88;1758993;81;21200;-70
2021/03/24 02:34:21;;;;;;;3.75;3.47;;;;;;;-1.97;67.90;100245.83;1758813;81;20976;-70
2021/03/24 02:36:54;;;;;;;3.67;3.37;;;;;;;-2.00;67.96;100246.29;1758958;81;20981;-70
2021/03/24 02:39:23;;;;;;;4.78;3.33;;;;;;;-2.03;68.25;100237.79;1732178;81;21017;-70
2021/03/24 02:41:53;;;;;;;4.80;3.08;;;;;;;-2.05;68.46;100248.42;1758930;81;21557;-69
2021/03/24 02:44:22;;;;;;;3.83;3.27;;;;;;;-2.06;68.55;100249.70;1758873;81;21192;-70
2021/03/24 02:46:51;;;;;;;5.00;3.40;;;;;;;-2.09;68.63;100256.08;1758777;81;21021;-69
2021/03/24 02:49:20;;;;;;;3.83;3.30;;;;;;;-2.11;68.62;100252.68;1758888;81;21048;-69
2021/03/24 02:51:48;;;;;;;3.70;3.42;;;;;;;-2.12;68.66;100254.37;1758840;81;20929;-69
2021/03/24 02:54:19;;;;;;;3.92;3.52;;;;;;;-2.11;68.67;100257.36;1758895;81;20942;-69
2021/03/24 02:56:50;;;;;;;4.72;3.70;;;;;;;-2.10;68.70;100264.58;1758856;81;21195;-69
2021/03/24 02:59:18;;;;;;;3.98;3.40;;;;;;;-2.10;68.73;100259.05;1758951;81;20918;-69
2021/03/24 03:01:52;;;;;;;5.08;3.50;;;;;;;-2.07;68.70;100260.33;1759034;81;20962;-69
2021/03/24 03:04:38;;;;;;;4.00;3.60;;;;;;;-2.05;68.62;100263.73;1758930;81;21590;-69
2021/03/24 03:07:12;;;;;;;3.35;3.15;;;;;;;-2.04;68.33;100262.88;1759209;81;20992;-70
2021/03/24 03:09:48;;;;;;;5.55;3.87;;;;;;;-2.04;68.33;100268.41;1759061;81;21364;-69
2021/03/24 03:12:34;;;;;;;3.55;3.25;;;;;;;-2.07;68.34;100270.53;1759025;81;20945;-69
2021/03/24 03:15:07;;;;;;;5.90;3.87;;;;;;;-2.09;68.43;100270.11;1759037;81;20997;-69
2021/03/24 03:17:45;;;;;;;3.95;3.60;;;;;;;-2.14;68.55;100275.21;1757628;81;21016;-68
2021/03/24 03:20:30;;;;;;;3.90;3.60;;;;;;;-2.20;68.59;100273.94;1757856;81;21056;-70
2021/03/24 03:23:18;;;;;;;5.15;4.03;;;;;;;-2.24;68.52;100272.66;1759036;81;21200;-70
2021/03/24 03:25:51;;;;;;;7.00;4.25;;;;;;;-2.28;68.65;100276.06;1759087;81;20918;-68
2021/03/24 03:28:19;;;;;;;4.35;3.85;;;;;;;-2.32;68.71;100287.11;1732212;81;21063;-70
2021/03/24 03:30:50;;;;;;;5.33;3.98;;;;;;;-2.34;68.90;100292.21;1759028;81;21491;-70
2021/03/24 03:33:26;;;;;;;6.35;4.30;;;;;;;-2.36;68.94;100292.63;1759130;81;21485;-69
2021/03/24 03:35:55;;;;;;;4.90;3.75;;;;;;;-2.38;68.98;100297.73;1759175;81;22129;-69
2021/03/24 03:38:24;;;;;;;3.98;3.67;;;;;;;-2.40;69.06;100297.34;1758931;81;21036;-69
2021/03/24 03:40:55;;;;;;;3.72;3.42;;;;;;;-2.44;69.13;100296.91;1759065;81;20978;-69
2021/03/24 03:43:23;;;;;;;3.98;3.67;;;;;;;-2.47;69.21;100294.36;1731829;81;20993;-69
2021/03/24 03:45:52;;;;;;;4.53;3.60;;;;;;;-2.49;69.27;100298.17;1759052;81;20988;-69
2021/03/24 03:48:21;;;;;;;4.90;4.08;;;;;;;-2.51;69.33;100302.84;1759086;81;21856;-69
2021/03/24 03:51:03;;;;;;;3.47;3.27;;;;;;;-2.54;69.35;100301.14;1732136;81;21044;-69
2021/03/24 03:53:46;;;;;;;3.60;3.37;;;;;;;-2.52;69.26;100313.89;1758999;81;20950;-73
2021/03/24 03:56:24;;;;;;;3.70;3.40;;;;;;;-2.54;69.37;100313.03;1759025;81;20898;-74
2021/03/24 03:59:03;;;;;;;3.52;3.22;;;;;;;-2.56;69.29;100315.59;1759053;81;20985;-73
2021/03/24 04:01:45;;;;;;;4.35;3.95;;;;;;;-2.57;69.32;100313.88;1759018;81;21125;-73
2021/03/24 04:04:26;;;;;;;4.85;3.55;;;;;;;-2.58;69.33;100318.55;1731764;81;20997;-73
2021/03/24 04:07:15;;;;;;;4.37;3.60;;;;;;;-2.56;69.30;100322.38;1759015;81;20982;-73
2021/03/24 04:09:47;;;;;;;7.10;3.62;;;;;;;-2.54;69.06;100321.95;1758999;81;21574;-73
2021/03/24 04:12:17;;;;;;;3.85;3.55;;;;;;;-2.53;69.04;100324.94;1759038;81;21507;-72
2021/03/24 04:14:46;;;;;;;6.53;3.27;;;;;;;-2.53;68.83;100324.52;1759031;81;21110;-73
2021/03/24 04:17:16;;;;;;;4.35;3.25;;;;;;;-2.50;69.16;100322.39;1758878;81;20969;-73
2021/03/24 04:19:49;;;;;;;3.87;3.00;;;;;;;-2.47;68.87;100330.91;1759002;81;20993;-73
2021/03/24 04:22:22;;;;;;;4.83;3.50;;;;;;;-2.43;68.50;100327.93;1759007;81;20945;-70
2021/03/24 04:24:54;;;;;;;3.72;3.42;;;;;;;-2.44;68.45;100323.26;1757165;81;20949;-73
2021/03/24 04:27:25;;;;;;;3.40;3.20;;;;;;;-2.42;68.75;100330.48;1758937;81;21404;-70
2021/03/24 04:30:07;;;;;;;4.05;3.45;;;;;;;-2.36;68.58;100334.71;1759049;81;21581;-69
2021/03/24 04:32:35;;;;;;;4.35;3.87;;;;;;;-2.32;68.27;100338.12;1759051;81;21045;-69
2021/03/24 04:35:05;;;;;;;5.58;3.75;;;;;;;-2.29;68.06;100340.25;1758945;81;21008;-68
2021/03/24 04:37:44;;;;;;;4.12;3.80;;;;;;;-2.26;67.79;100341.95;1758949;81;21586;-67
2021/03/24 04:40:45;;;;;;;3.92;3.62;;;;;;;-2.23;67.71;100351.73;1758985;81;21196;-69
2021/03/24 04:43:24;;;;;;;4.20;3.80;;;;;;;-2.16;67.56;100352.17;1758919;81;21025;-67
2021/03/24 04:46:02;;;;;;;4.47;3.90;;;;;;;-2.07;67.63;100357.70;1759139;81;21143;-67
2021/03/24 04:48:35;;;;;;;5.25;4.50;;;;;;;-1.96;67.27;100360.23;1759229;81;21675;-68
2021/03/24 04:51:08;;;;;;;5.35;3.75;;;;;;;-1.87;67.04;100362.36;1759334;81;21443;-68
2021/03/24 04:53:42;;;;;;;3.80;3.50;;;;;;;-1.73;66.88;100359.80;1759311;81;21368;-67
2021/03/24 04:56:12;;;;;;;4.72;4.22;;;;;;;-1.57;65.81;100366.57;1759197;81;21029;-67
2021/03/24 04:58:53;;;;;;;3.83;3.52;;;;;;;-1.40;65.43;100371.23;1759064;81;21009;-68
2021/03/24 05:01:39;;;;;;;4.15;3.75;;;;;;;-1.14;65.38;100360.92;1758878;81;20957;-70
2021/03/24 05:04:22;;;;;;;5.73;4.00;;;;;;;-0.30;62.90;100378.39;1732501;81;20949;-70
2021/03/24 05:06:56;;;;;;;3.92;3.52;;;;;;;-0.30;62.90;100378.39;1758951;81;21661;-70
2021/03/24 05:09:24;;;;;;;4.25;3.60;;;;;;;0.04;61.65;100371.74;1758915;81;21452;-71
2021/03/24 05:12:16;;;;;;;5.28;4.00;;;;;;;0.28;60.99;100376.67;1758963;81;20994;-72
2021/03/24 05:14:55;;;;;;;6.42;4.42;;;;;;;0.54;60.64;100382.39;1758804;81;20985;-72
2021/03/24 05:17:30;;;;;;;5.90;4.00;;;;;;;0.86;59.05;100379.48;1756326;81;21009;-71
2021/03/24 05:20:03;;;;;;;6.03;4.15;;;;;;;1.13;59.02;100376.20;1740086;82;21208;-71
2021/03/24 05:22:36;;;;;;;5.22;4.45;;;;;;;1.42;56.80;100377.94;1740013;82;21017;-70
2021/03/24 05:25:18;;;;;;;6.10;3.80;;;;;;;1.53;56.13;100386.35;1739842;82;21002;-70
2021/03/24 05:27:50;;;;;;;4.83;4.28;;;;;;;1.56;55.38;100386.75;1736980;82;20978;-70
2021/03/24 05:30:24;;;;;;;4.72;3.98;;;;;;;1.62;54.95;100386.63;1740049;82;20986;-71
2021/03/24 05:32:57;;;;;;;4.15;3.75;;;;;;;1.66;54.67;100391.70;1740093;82;21144;-69
2021/03/24 05:35:58;;;;;;;4.37;4.00;;;;;;;1.71;54.81;100395.49;1739972;82;20907;-71
2021/03/24 05:38:43;;;;;;;8.73;4.37;;;;;;;1.83;54.69;100394.47;1740066;82;20943;-71
2021/03/24 05:41:51;;;;;;;5.20;3.60;;;;;;;1.95;53.84;100407.98;1740002;82;21544;-70
2021/03/24 05:45:17;;;;;;;4.20;3.55;;;;;;;1.92;52.88;100404.61;1739904;81;20990;-70
2021/03/24 05:48:31;;;;;;;4.55;3.33;;;;;;;1.78;53.40;100403.52;1748440;81;21364;-71
2021/03/24 05:51:19;;;;;;;3.80;3.45;;;;;;;1.59;53.20;100412.38;1763395;81;21021;-71
2021/03/24 05:54:13;;;;;;;8.33;3.80;;;;;;;1.40;53.63;100404.48;1770654;81;21044;-70
2021/03/24 05:57:23;;;;;;;4.80;4.12;;;;;;;1.31;54.16;100396.03;1748058;81;20990;-68
2021/03/24 06:00:16;;;;;;;4.00;3.55;;;;;;;1.25;54.32;100408.93;1694963;83;21215;-73
2021/03/24 06:03:07;;;;;;;4.87;3.80;;;;;;;1.24;54.62;100411.52;1698883;82;21685;-73
2021/03/24 06:06:19;;;;;;;3.35;3.05;;;;;;;1.25;54.53;100414.06;1693966;84;21101;-72
2021/03/24 06:09:17;;;;;;;4.05;3.50;;;;;;;1.28;54.62;100424.72;1721884;81;21704;-70
2021/03/24 06:12:33;;;;;;;4.08;3.10;;;;;;;1.28;54.13;100415.75;1743280;81;21197;-69
2021/03/24 06:15:27;;;;;;;5.30;3.60;;;;;;;1.23;54.18;100429.91;1724769;81;21736;-71
2021/03/24 06:18:15;;;;;;;3.98;3.58;;;;;;;1.22;54.70;100423.51;1705230;81;21568;-72
2021/03/24 06:20:59;;;;;;;6.00;3.27;;;;;;;1.29;54.42;100424.70;1758059;79;21162;-71
2021/03/24 06:23:40;;;;;;;3.85;3.55;;;;;;;1.40;54.43;100428.42;1726712;81;21585;-74
2021/03/24 06:26:23;;;;;;;3.45;3.15;;;;;;;1.50;54.24;100430.45;1777693;80;21118;-71
2021/03/24 06:29:29;;;;;;;4.78;3.45;;;;;;;1.56;53.95;100424.81;1742304;81;21107;-74
2021/03/24 06:32:39;;;;;;;4.65;3.30;;;;;;;1.63;54.02;100438.38;1766254;80;21386;-72
2021/03/24 06:35:34;;;;;;;5.33;3.50;;;;;;;1.70;54.01;100446.42;1731361;82;21054;-73
2021/03/24 06:38:26;;;;;;;3.42;3.10;;;;;;;1.78;53.59;100452.30;1721670;82;21043;-72
2021/03/24 06:41:07;;;;;;;3.50;3.20;;;;;;;1.83;53.21;100440.26;1767929;80;21021;-73
2021/03/24 06:44:11;;;;;;;7.17;3.40;;;;;;;1.84;53.11;100442.39;1755211;80;36883;-73
2021/03/24 06:46:51;;;;;;;6.08;3.50;;;;;;;1.80;53.14;100442.02;1760773;80;22269;-67
2021/03/24 06:49:28;;;;;;;3.95;3.05;;;;;;;1.79;53.64;100432.18;1769535;80;21088;-68
2021/03/24 06:52:27;;;;;;;4.00;3.65;;;;;;;1.83;53.40;100436.84;1764690;80;20964;-69
2021/03/24 06:55:27;;;;;;;4.25;3.17;;;;;;;1.85;53.28;100438.95;1763341;80;20997;-69
2021/03/24 06:58:38;;;;;;;4.67;3.45;;;;;;;1.93;52.84;100435.41;1718895;81;21041;-70
2021/03/24 07:01:25;;;;;;;6.10;4.00;;;;;;;2.05;53.05;100440.78;1710992;82;21824;-69
2021/03/24 07:04:20;;;;;;;3.45;3.12;;;;;;;2.22;52.81;100433.67;1780517;78;21044;-71
2021/03/24 07:07:11;;;;;;;5.08;3.60;;;;;;;2.44;52.32;100438.02;1786887;80;20966;-75
2021/03/24 07:09:59;;;;;;;4.20;3.80;;;;;;;2.67;51.59;100421.78;1776545;79;20997;-70
2021/03/24 07:12:39;;;;;;;10.08;3.80;;;;;;;2.82;51.44;100436.06;1774474;80;21733;-71
2021/03/24 07:15:26;;;;;;;4.10;3.58;;;;;;;2.98;51.49;100425.91;1768748;80;21276;-69
2021/03/24 07:18:18;;;;;;;8.73;4.70;;;;;;;3.22;50.94;100426.30;1791446;80;21797;-71
2021/03/24 07:21:46;;;;;;;4.05;3.65;;;;;;;3.48;49.99;100432.22;1744892;80;20997;-71
2021/03/24 07:24:55;;;;;;;4.83;3.60;;;;;;;3.62;49.25;100437.91;1751974;81;21679;-75
2021/03/24 07:27:52;;;;;;;3.98;3.30;;;;;;;3.69;49.10;100439.47;1745350;80;21096;-70
2021/03/24 07:31:01;;;;;;;3.95;3.33;;;;;;;3.83;48.60;100437.89;1748632;78;21394;-74
2021/03/24 07:34:02;;;;;;;5.90;4.12;;;;;;;3.97;48.36;100435.42;1763695;81;21049;-71
2021/03/24 07:36:56;;;;;;;4.62;3.95;;;;;;;4.19;48.19;100447.80;1746405;81;21453;-74
2021/03/24 07:39:59;;;;;;;5.10;3.58;;;;;;;4.38;47.53;100447.78;1745774;81;21053;-73
2021/03/24 07:42:36;;;;;;;4.67;3.70;;;;;;;4.55;47.93;100455.92;1752276;81;21081;-77
2021/03/24 07:45:44;;;;;;;4.05;3.37;;;;;;;4.81;46.92;100457.83;1672761;83;21444;-76
2021/03/24 07:48:54;;;;;;;4.47;3.22;;;;;;;4.92;46.70;100455.83;1719695;83;21105;-71
2021/03/24 07:51:46;;;;;;;3.35;3.05;;;;;;;5.11;46.49;100464.39;1700432;83;20994;-76
2021/03/24 07:54:35;;;;;;;3.60;3.30;;;;;;;5.32;45.85;100460.76;1687075;83;21101;-72
2021/03/24 07:57:32;;;;;;;4.67;3.67;;;;;;;5.44;45.50;100463.89;1686297;83;21726;-72
2021/03/24 08:00:09;;;;;;;4.20;3.02;;;;;;;5.40;45.02;100465.72;1693894;83;21381;-70
2021/03/24 08:02:59;;;;;;;6.85;3.60;;;;;;;5.32;44.83;100476.25;1702926;81;21057;-72
2021/03/24 08:05:50;;;;;;;3.62;3.33;;;;;;;5.23;45.13;100482.10;1702283;83;21010;-71
2021/03/24 08:08:45;;;;;;;3.62;3.27;;;;;;;5.17;45.70;100488.75;1704001;81;21094;-71
2021/03/24 08:11:43;;;;;;;4.60;3.17;;;;;;;5.13;44.80;100476.37;1701910;81;21105;-72
2021/03/24 08:14:57;;;;;;;3.70;3.37;;;;;;;5.05;45.51;100485.20;1703789;81;21054;-69
2021/03/24 08:17:37;;;;;;;4.58;3.27;;;;;;;5.08;45.97;100489.84;1702361;81;21075;-69
2021/03/24 08:20:41;;;;;;;3.55;3.17;;;;;;;5.17;45.07;100481.85;1686607;83;21168;-74
2021/03/24 08:23:25;;;;;;;4.40;3.05;;;;;;;5.16;44.77;100481.89;1686764;83;21547;-73
2021/03/24 08:26:23;;;;;;;3.67;3.37;;;;;;;5.17;45.20;100485.72;1695489;81;21617;-76
2021/03/24 08:29:02;;;;;;;3.47;3.17;;;;;;;5.25;44.34;100493.23;1692671;81;21218;-73
2021/03/24 08:32:14;;;;;;;3.35;3.05;;;;;;;5.21;44.21;100486.46;1688789;83;21072;-73
2021/03/24 08:35:37;;;;;;;3.30;3.00;;;;;;;5.23;44.27;100477.78;1708876;83;21057;-73
2021/03/24 08:38:53;;;;;;;5.28;3.62;;;;;;;5.26;43.30;100482.02;1699986;84;21133;-71
2021/03/24 08:41:51;;;;;;;5.78;3.20;;;;;;;5.25;43.82;100487.63;1683509;84;21671;-72
2021/03/24 08:44:45;;;;;;;5.25;3.17;;;;;;;5.28;43.18;100473.34;1698287;83;21217;-77
2021/03/24 08:47:24;;;;;;;3.83;3.20;;;;;;;5.30;43.72;100494.81;1670748;83;21631;-73
2021/03/24 08:49:55;;;;;;;3.35;2.92;;;;;;;5.33;43.44;100484.41;1686176;83;21129;-72
2021/03/24 08:53:03;;;;;;;3.85;3.20;;;;;;;5.36;43.14;100489.92;1686626;83;21070;-70
2021/03/24 08:55:55;;;;;;;3.65;3.20;;;;;;;5.34;42.67;100489.97;1687671;83;21022;-72
2021/03/24 08:58:32;;;;;;;4.22;3.70;;;;;;;5.27;43.47;100484.56;1695653;83;21646;-72
2021/03/24 09:01:21;;;;;;;3.57;3.20;;;;;;;5.27;43.45;100487.15;1702665;81;21046;-73
2021/03/24 09:04:40;;;;;;;2.90;2.70;;;;;;;5.25;43.37;100480.33;1708550;81;21359;-72
2021/03/24 09:07:39;;;;;;;2.70;2.50;;;;;;;5.21;43.65;100477.42;1710412;83;21029;-72
2021/03/24 09:10:24;;;;;;;8.73;3.42;;;;;;;5.16;43.92;100488.34;1709688;82;21038;-72
2021/03/24 09:13:12;;;;;;;3.30;3.00;;;;;;;5.10;43.23;100483.34;1708307;83;22294;-80
2021/03/24 09:16:29;;;;;;;2.70;2.50;;;;;;;5.02;43.59;100500.31;1709126;82;21088;-80
2021/03/24 09:19:19;;;;;;;;;;;;;;;4.93;42.83;100488.94;1700688;83;21051;-78
2021/03/24 09:22:39;;;;;;;3.47;2.85;;;;;;;4.82;43.31;100501.25;1688462;83;20205;-75
2021/03/24 09:25:35;;;;;;;9.33;4.25;;;;;;;4.71;43.94;100494.25;1687649;81;21022;-72
2021/03/24 09:31:49;;;;;;;3.50;3.17;;;;;;;4.56;44.42;100489.86;1704875;83;21015;-74
2021/03/24 09:35:10;;;;;;;3.10;2.80;;;;;;;4.53;44.72;100504.12;1697182;83;21045;-75
2021/03/24 09:37:50;;;;;;;4.10;3.70;;;;;;;4.50;44.63;100499.03;1700148;81;21647;-76
2021/03/24 09:40:39;;;;;;;3.40;3.10;;;;;;;4.52;44.85;100495.13;1685958;83;21588;-71
2021/03/24 09:43:34;;;;;;;6.12;3.15;;;;;;;4.53;45.42;100500.69;1698671;83;21271;-77
2021/03/24 09:46:10;;;;;;;9.85;3.22;;;;;;;4.55;45.22;100502.34;1708059;81;21164;-76
2021/03/24 09:48:43;;;;;;;4.08;2.90;;;;;;;4.54;45.14;100500.66;1690077;83;21085;-74
2021/03/24 09:51:22;;;;;;;3.10;2.80;;;;;;;4.51;44.33;100502.02;1686021;83;21093;-75
2021/03/24 09:53:57;;;;;;;3.58;3.20;;;;;;;4.44;44.61;100498.32;1695095;81;21038;-72
2021/03/24 09:56:27;;;;;;;6.67;3.20;;;;;;;4.40;44.87;100494.97;1687104;83;21219;-71
2021/03/24 09:59:17;;;;;;;6.78;3.55;;;;;;;4.39;44.75;100489.44;1697042;83;21085;-71
2021/03/24 10:02:04;;;;;;;2.75;2.55;;;;;;;4.41;45.21;100489.37;1692863;83;21105;-74
2021/03/24 10:04:54;;;;;;;5.95;3.05;;;;;;;4.43;44.78;100485.02;1695181;81;21198;-73
2021/03/24 10:07:37;;;;;;;4.45;3.20;;;;;;;4.44;44.62;100499.17;1686793;81;21204;-71
2021/03/24 10:10:22;;;;;;;2.87;2.67;;;;;;;4.45;44.87;100490.99;1696687;81;22235;-71
2021/03/24 10:13:15;;;;;;;3.40;3.10;;;;;;;4.48;44.45;100499.95;1703871;83;21101;-71
2021/03/24 10:16:04;;;;;;;5.28;3.25;;;;;;;4.47;43.73;100493.09;1700507;83;21065;-70
2021/03/24 10:18:38;;;;;;;2.98;2.67;;;;;;;4.45;44.36;100494.86;1696233;83;21045;-71
2021/03/24 10:21:25;;;;;;;4.47;3.15;;;;;;;4.45;44.33;100488.41;1708703;81;21601;-72
2021/03/24 10:23:59;;;;;;;;;;;;;;;4.47;45.24;100486.65;1759278;80;21374;-72
2021/03/24 10:26:52;;;;;;;2.87;2.60;;;;;;;4.52;45.84;100490.81;1779774;80;20560;-69
2021/03/24 10:29:29;;;;;;;3.90;3.10;;;;;;;4.54;44.21;100492.91;1767574;80;21124;-70
2021/03/24 10:32:04;;;;;;;9.33;3.20;;;;;;;4.53;44.25;100480.91;1738073;81;21020;-73
2021/03/24 10:34:43;;;;;;;3.05;2.80;;;;;;;4.53;44.90;100484.77;1762917;80;21001;-71
2021/03/24 10:37:35;;;;;;;4.08;3.72;;;;;;;4.54;44.67;100482.59;1769304;80;21193;-71
2021/03/24 10:40:27;;;;;;;8.28;4.70;;;;;;;4.57;44.84;100480.39;1776656;78;21092;-72
2021/03/24 10:43:03;;;;;;;3.35;3.05;;;;;;;4.59;44.04;100476.89;1768107;80;20953;-73
2021/03/24 10:45:40;;;;;;;2.90;2.70;;;;;;;4.55;44.24;100476.56;1777345;78;21579;-71
2021/03/24 10:48:32;;;;;;;3.75;2.75;;;;;;;4.56;44.71;100473.53;1781339;78;21037;-71
2021/03/24 10:51:28;;;;;;;5.25;3.10;;;;;;;4.60;45.37;100471.29;1737826;78;21442;-71
2021/03/24 10:54:20;;;;;;;4.08;2.30;;;;;;;4.67;43.38;100471.55;1741432;80;21049;-73
2021/03/24 10:57:21;;;;;;;3.22;2.92;;;;;;;4.69;43.32;100471.91;1728569;80;21242;-75
2021/03/24 11:00:03;;;;;;;4.30;2.80;;;;;;;4.69;43.07;100471.07;1760642;80;21052;-72
2021/03/24 11:03:07;;;;;;;4.97;3.17;;;;;;;4.72;42.95;100463.70;1751795;80;21645;-70
2021/03/24 11:05:52;;;;;;;3.30;2.77;;;;;;;4.76;43.36;100464.03;1769344;78;21821;-71
2021/03/24 11:09:10;;;;;;;3.15;2.33;;;;;;;4.87;43.03;100458.13;1859818;75;22592;-71
2021/03/24 11:12:03;;;;;;;3.30;2.40;;;;;;;4.86;42.00;100452.12;1835745;76;20882;-70
2021/03/24 11:14:35;;;;;;;2.67;2.47;;;;;;;4.88;42.33;100449.50;1845314;76;21176;-73
2021/03/24 11:17:09;;;;;;;2.60;2.40;;;;;;;4.91;42.06;100453.29;1847953;77;21559;-74
2021/03/24 11:19:47;;;;;;;3.27;2.50;;;;;;;4.92;41.24;100459.70;1866307;76;20994;-72
2021/03/24 11:22:30;;;;;;;3.33;2.80;;;;;;;4.92;41.24;100457.56;1855368;77;21531;-74
2021/03/24 11:25:28;;;;;;;4.85;3.15;;;;;;;4.90;42.81;100458.05;1769294;80;21100;-74
2021/03/24 11:28:07;;;;;;;12.58;7.17;;;;;;;4.91;42.57;100455.88;1751728;79;22233;-74
2021/03/24 11:30:42;;;;;;;4.85;3.85;;;;;;;4.93;41.72;100463.13;1798571;78;21615;-70
2021/03/24 11:33:37;;;;;;;4.72;3.58;;;;;;;4.96;40.75;100447.13;1780940;79;21058;-74
2021/03/24 11:36:29;;;;;;;6.35;3.95;;;;;;;4.95;41.60;100454.91;1796972;77;21587;-73
2021/03/24 11:39:16;;;;;;;4.58;3.62;;;;;;;4.95;42.08;100453.17;1774132;79;21255;-74
2021/03/24 11:41:47;;;;;;;4.53;3.75;;;;;;;4.95;42.24;100445.43;1778940;79;21141;-74
2021/03/24 11:44:20;;;;;;;8.85;3.60;;;;;;;4.97;42.35;100442.81;1774228;79;21073;-73
2021/03/24 11:46:59;;;;;;;4.97;3.67;;;;;;;5.01;42.26;100443.13;1797390;78;21686;-75
2021/03/24 11:49:50;;;;;;;5.03;4.53;;;;;;;5.03;42.25;100430.59;1788421;79;21497;-72
2021/03/24 11:52:48;;;;;;;5.83;3.72;;;;;;;5.05;42.67;100428.41;1801597;78;21268;-77
2021/03/24 11:55:53;;;;;;;8.63;5.47;;;;;;;5.07;42.58;100437.81;1763093;79;21888;-76
2021/03/24 11:58:49;;;;;;;5.67;4.17;;;;;;;5.12;42.15;100438.98;1810073;78;22314;-75
2021/03/24 12:01:31;;;;;;;4.65;3.50;;;;;;;5.14;42.24;100436.77;1781329;79;21213;-72
2021/03/24 12:04:33;;;;;;;4.40;3.65;;;;;;;5.17;42.27;100430.67;1781528;78;21108;-72
2021/03/24 12:07:38;;;;;;;6.03;3.40;;;;;;;5.16;41.61;100427.23;1777791;79;20970;-74
2021/03/24 12:10:31;;;;;;;6.62;3.83;;;;;;;5.15;41.98;100426.84;1788106;78;21698;-71
2021/03/24 12:13:20;;;;;;;3.92;3.17;;;;;;;5.16;42.47;100421.23;1857095;76;21214;-75
2021/03/24 12:16:07;;;;;;;3.47;2.83;;;;;;;5.19;41.96;100427.60;1841444;76;21551;-71
2021/03/24 12:18:48;;;;;;;7.40;3.10;;;;;;;5.21;41.08;100428.38;1852557;76;20977;-72
2021/03/24 12:21:35;;;;;;;6.00;2.67;;;;;;;5.20;41.50;100417.67;1838885;76;20981;-71
2021/03/24 12:24:36;;;;;;;3.08;2.80;;;;;;;5.22;41.83;100430.91;1841890;76;21198;-71
2021/03/24 12:27:18;;;;;;;3.20;2.83;;;;;;;5.22;41.28;100427.48;1806239;77;21760;-68
2021/03/24 12:30:09;;;;;;;3.80;2.45;;;;;;;5.20;41.31;100424.95;1837934;76;21040;-67
2021/03/24 12:32:39;;;;;;;5.37;4.20;;;;;;;5.21;40.80;100426.64;1850756;76;21060;-69
2021/03/24 12:35:27;;;;;;;6.08;3.50;;;;;;;5.23;40.69;100424.86;1856269;76;21044;-67
2021/03/24 12:38:05;;;;;;;;;;;;;;;5.25;41.02;100423.53;1840056;76;22242;-68
2021/03/24 12:40:34;;;;;;;4.25;3.45;;;;;;;5.28;41.56;100433.77;1832591;78;20135;-70
2021/03/24 12:43:12;;;;;;;4.45;3.40;;;;;;;5.30;40.47;100434.58;1755815;80;21595;-70
2021/03/24 12:45:43;;;;;;;3.75;3.17;;;;;;;5.28;40.28;100421.71;1786772;78;20986;-74
2021/03/24 12:48:22;;;;;;;3.33;3.02;;;;;;;5.28;39.98;100416.55;1762059;80;21693;-73
2021/03/24 12:51:14;;;;;;;4.35;2.90;;;;;;;5.26;39.86;100424.78;1780876;80;22546;-73